Finnish Line 2.0 — CFN6579 — position and weather

sailwx.info

Track history (hours):
 
Tides and Currents Weather Stations Pressure Air Temp Water Temp Dewpoint Dewpoint Depression Visibility Wind Speed Wind Dir Waves Ship Positions

Finnish Line 2.0

Last reported at 2017-Oct-07 14:03 UTC. Time now 2017-Oct-19 07:02 UTC.
Position N 38°56' W 076°25'.
Warning: this ship's position is 11 days out of date.

Length 10 m.

MMSI: 316026204.

Date/timePositionNaut miles runAvg speedWind from/ knotsBaromVisibWave heightAir tempDewpointWater temp
2017-Oct-07 14:03N 38°56' W 076°25'0 3.5
2017-Oct-07 14:00N 38°56' W 076°25'2 4.5
2017-Oct-07 13:30N 38°58' W 076°27'2 3.3
2017-Oct-07 12:59N 38°58' W 076°29'0 0.0
2017-Oct-07 02:14N 38°58' W 076°29'0 0.0
2017-Oct-07 01:56N 38°58' W 076°29'0 0.0
2017-Oct-07 01:29N 38°58' W 076°29'0 0.0
2017-Oct-07 00:59N 38°58' W 076°29'0 0.0
2017-Oct-05 00:48N 38°58' W 076°29'0 0.0
2017-Oct-05 00:30N 38°58' W 076°29'0 0.0
2017-Oct-05 00:00N 38°58' W 076°29'0 0.0
2017-Oct-04 23:30N 38°58' W 076°29'0 0.0
2017-Oct-04 23:00N 38°58' W 076°29'0 0.0
2017-Oct-04 22:30N 38°58' W 076°29'0 0.0
2017-Oct-04 22:00N 38°58' W 076°29'0 0.0
2017-Oct-04 17:25N 38°58' W 076°29'0 0.2
2017-Oct-04 17:00N 38°58' W 076°29'2 3.8
2017-Oct-04 16:30N 38°58' W 076°27'2 5.0
2017-Oct-04 16:00N 38°59' W 076°24'3 5.0
2017-Oct-04 15:29N 39°01' W 076°21'  
2017-Oct-01 12:53N 39°23' W 076°05'2 6.1
2017-Oct-01 12:31N 39°23' W 076°02'3 5.8
2017-Oct-01 12:00N 39°22' W 075°58'12 0.4
2017-Sep-30 01:59N 39°32' W 075°48'0 0.0
2017-Sep-30 01:29N 39°32' W 075°48'0 0.0
2017-Sep-30 00:59N 39°32' W 075°48'0 0.0
2017-Sep-30 00:29N 39°32' W 075°48'0 0.0
2017-Sep-29 23:59N 39°32' W 075°48'0 0.0
2017-Sep-29 23:29N 39°32' W 075°48'0 0.0
2017-Sep-29 22:59N 39°32' W 075°48'0 0.0
2017-Sep-29 22:29N 39°32' W 075°48'0 0.0
2017-Sep-29 21:53N 39°32' W 075°48'0 0.0
2017-Sep-29 21:26N 39°32' W 075°48'0 0.0
2017-Sep-29 20:59N 39°32' W 075°48'0 0.1
2017-Sep-29 19:14N 39°32' W 075°49'0 0.0
2017-Sep-29 18:59N 39°32' W 075°49'0 0.0
2017-Sep-29 14:37N 39°32' W 075°49'0 0.0
2017-Sep-29 14:22N 39°32' W 075°49'0 0.0
2017-Sep-29 13:58N 39°32' W 075°49'0 0.0
2017-Sep-27 22:47N 39°32' W 075°49'0 0.0
2017-Sep-27 22:29N 39°32' W 075°49'0 0.0
2017-Sep-27 21:59N 39°32' W 075°49'0 0.0
2017-Sep-27 21:29N 39°32' W 075°49'0 0.0
2017-Sep-27 20:59N 39°32' W 075°49'2 4.7
2017-Sep-27 20:30N 39°32' W 075°46'4 7.3
2017-Sep-27 20:00N 39°33' W 075°41'3 6.7
2017-Sep-27 19:30N 39°33' W 075°37'3 5.9
2017-Sep-27 19:00N 39°33' W 075°33'4 7.5
2017-Sep-27 18:30N 39°29' W 075°33'4 7.0
2017-Sep-27 18:00N 39°26' W 075°32'3 6.8
2017-Sep-27 17:30N 39°23' W 075°29'3 6.8
2017-Sep-27 17:00N 39°21' W 075°27'3 6.4
2017-Sep-27 16:30N 39°18' W 075°24'3 5.7
2017-Sep-27 16:00N 39°16' W 075°21'3 6.2
2017-Sep-27 15:29N 39°14' W 075°18'3 5.9
2017-Sep-27 15:00N 39°12' W 075°16'  
Track history (hours):
 
Tides and Currents Weather Stations Pressure Air Temp Water Temp Dewpoint Dewpoint Depression Visibility Wind Speed Wind Dir Waves Ship Positions

Finnish Line 2.0

Last reported at 2017-Oct-07 14:03 UTC. Time now 2017-Oct-19 07:02 UTC.
Position N 38°56' W 076°25'.
Warning: this ship's position is 11 days out of date.

Length 10 m.

MMSI: 316026204.

Date/timePositionNaut miles runAvg speedWind from/ knotsBaromVisibWave heightAir tempDewpointWater temp
2017-Oct-07 14:03N 38°56' W 076°25'0 3.5
2017-Oct-07 14:00N 38°56' W 076°25'2 4.5
2017-Oct-07 13:30N 38°58' W 076°27'2 3.3
2017-Oct-07 12:59N 38°58' W 076°29'0 0.0
2017-Oct-07 02:14N 38°58' W 076°29'0 0.0
2017-Oct-07 01:56N 38°58' W 076°29'0 0.0
2017-Oct-07 01:29N 38°58' W 076°29'0 0.0
2017-Oct-07 00:59N 38°58' W 076°29'0 0.0
2017-Oct-05 00:48N 38°58' W 076°29'0 0.0
2017-Oct-05 00:30N 38°58' W 076°29'0 0.0
2017-Oct-05 00:00N 38°58' W 076°29'0 0.0
2017-Oct-04 23:30N 38°58' W 076°29'0 0.0
2017-Oct-04 23:00N 38°58' W 076°29'0 0.0
2017-Oct-04 22:30N 38°58' W 076°29'0 0.0
2017-Oct-04 22:00N 38°58' W 076°29'0 0.0
2017-Oct-04 17:25N 38°58' W 076°29'0 0.2
2017-Oct-04 17:00N 38°58' W 076°29'2 3.8
2017-Oct-04 16:30N 38°58' W 076°27'2 5.0
2017-Oct-04 16:00N 38°59' W 076°24'3 5.0
2017-Oct-04 15:29N 39°01' W 076°21'  
2017-Oct-01 12:53N 39°23' W 076°05'2 6.1
2017-Oct-01 12:31N 39°23' W 076°02'3 5.8
2017-Oct-01 12:00N 39°22' W 075°58'12 0.4
2017-Sep-30 01:59N 39°32' W 075°48'0 0.0
2017-Sep-30 01:29N 39°32' W 075°48'0 0.0
2017-Sep-30 00:59N 39°32' W 075°48'0 0.0
2017-Sep-30 00:29N 39°32' W 075°48'0 0.0
2017-Sep-29 23:59N 39°32' W 075°48'0 0.0
2017-Sep-29 23:29N 39°32' W 075°48'0 0.0
2017-Sep-29 22:59N 39°32' W 075°48'0 0.0
2017-Sep-29 22:29N 39°32' W 075°48'0 0.0
2017-Sep-29 21:53N 39°32' W 075°48'0 0.0
2017-Sep-29 21:26N 39°32' W 075°48'0 0.0
2017-Sep-29 20:59N 39°32' W 075°48'0 0.1
2017-Sep-29 19:14N 39°32' W 075°49'0 0.0
2017-Sep-29 18:59N 39°32' W 075°49'0 0.0
2017-Sep-29 14:37N 39°32' W 075°49'0 0.0
2017-Sep-29 14:22N 39°32' W 075°49'0 0.0
2017-Sep-29 13:58N 39°32' W 075°49'0 0.0
2017-Sep-27 22:47N 39°32' W 075°49'0 0.0
2017-Sep-27 22:29N 39°32' W 075°49'0 0.0
2017-Sep-27 21:59N 39°32' W 075°49'0 0.0
2017-Sep-27 21:29N 39°32' W 075°49'0 0.0
2017-Sep-27 20:59N 39°32' W 075°49'2 4.7
2017-Sep-27 20:30N 39°32' W 075°46'4 7.3
2017-Sep-27 20:00N 39°33' W 075°41'3 6.7
2017-Sep-27 19:30N 39°33' W 075°37'3 5.9
2017-Sep-27 19:00N 39°33' W 075°33'4 7.5
2017-Sep-27 18:30N 39°29' W 075°33'4 7.0
2017-Sep-27 18:00N 39°26' W 075°32'3 6.8
2017-Sep-27 17:30N 39°23' W 075°29'3 6.8
2017-Sep-27 17:00N 39°21' W 075°27'3 6.4
2017-Sep-27 16:30N 39°18' W 075°24'3 5.7
2017-Sep-27 16:00N 39°16' W 075°21'3 6.2
2017-Sep-27 15:29N 39°14' W 075°18'3 5.9
2017-Sep-27 15:00N 39°12' W 075°16'  

Dump ship's entire track history